createdAt,value
2023-04-18T00:02:07.389Z,102702.46
2023-04-18T00:05:48.167Z,102705.77
2023-04-18T00:09:20.859Z,102703.87
2023-04-18T00:12:58.923Z,102706.84
2023-04-18T00:16:38.398Z,102706.50
2023-04-18T00:20:14.323Z,102710.13
2023-04-18T00:23:52.268Z,102708.91
2023-04-18T00:27:29.515Z,102708.91
2023-04-18T00:31:06.837Z,102708.76
2023-04-18T00:34:45.350Z,102711.58
2023-04-18T00:38:22.284Z,102707.88
2023-04-18T00:42:01.325Z,102707.64
2023-04-18T00:45:37.674Z,102711.10
2023-04-18T00:49:15.762Z,102702.65
2023-04-18T00:52:54.322Z,102703.71
2023-04-18T00:56:33.008Z,102709.09
2023-04-18T01:00:10.061Z,102712.90
2023-04-18T01:03:46.584Z,102710.55
2023-04-18T01:07:24.148Z,102715.14
2023-04-18T01:11:01.987Z,102716.90
2023-04-18T01:14:43.074Z,102717.98
2023-04-18T01:18:18.102Z,102714.32
2023-04-18T01:21:54.521Z,102715.13
2023-04-18T01:25:33.717Z,102715.58
2023-04-18T01:29:10.352Z,102716.33
2023-04-18T01:32:47.799Z,102714.05
2023-04-18T01:36:27.018Z,102718.45
2023-04-18T01:40:03.776Z,102714.75
2023-04-18T01:43:40.845Z,102709.81
2023-04-18T01:47:18.499Z,102716.18
2023-04-18T01:50:58.137Z,102711.23
2023-04-18T01:54:33.692Z,102709.12
2023-04-18T02:01:49.197Z,102716.02
2023-04-18T02:05:27.754Z,102718.97
2023-04-18T02:09:04.679Z,102714.98
2023-04-18T02:12:42.009Z,102715.64
2023-04-18T02:16:20.008Z,102708.95
2023-04-18T02:19:57.416Z,102710.08
2023-04-18T02:23:35.184Z,102706.29
2023-04-18T02:27:13.951Z,102707.08
2023-04-18T02:30:50.601Z,102702.25
2023-04-18T02:34:28.023Z,102704.58
2023-04-18T02:38:05.896Z,102704.64
2023-04-18T02:41:43.363Z,102705.52
2023-04-18T02:45:21.206Z,102703.09
2023-04-18T02:48:58.640Z,102705.17
2023-04-18T02:52:36.857Z,102705.37
2023-04-18T02:56:17.356Z,102707.02
2023-04-18T02:59:51.950Z,102707.05
2023-04-18T03:03:29.646Z,102699.58
2023-04-18T03:07:07.425Z,102700.21
2023-04-18T03:10:45.070Z,102701.91
2023-04-18T03:14:22.349Z,102702.30
2023-04-18T03:18:00.409Z,102703.54
2023-04-18T03:21:37.773Z,102704.80
2023-04-18T03:25:16.119Z,102698.56
2023-04-18T03:28:53.323Z,102696.45
2023-04-18T03:32:34.311Z,102701.77
2023-04-18T03:36:09.272Z,102701.33
2023-04-18T03:39:46.401Z,102698.96
2023-04-18T03:43:23.954Z,102698.55
2023-04-18T03:47:01.713Z,102699.91
2023-04-18T03:50:39.511Z,102700.92
2023-04-18T03:54:17.503Z,102700.11
2023-04-18T03:57:55.086Z,102702.27
2023-04-18T04:01:32.786Z,102702.45
2023-04-18T04:05:10.092Z,102709.03
2023-04-18T04:08:47.697Z,102708.29
2023-04-18T04:12:25.959Z,102710.30
2023-04-18T04:16:03.898Z,102707.20
2023-04-18T04:19:40.724Z,102710.84
2023-04-18T04:23:18.850Z,102709.27
2023-04-18T04:26:56.385Z,102711.69
2023-04-18T04:30:33.789Z,102717.11
2023-04-18T04:34:12.261Z,102714.60
2023-04-18T04:37:49.774Z,102724.22
2023-04-18T04:41:27.897Z,102726.42
2023-04-18T04:45:05.199Z,102732.92
2023-04-18T04:48:42.561Z,102731.73
2023-04-18T04:52:20.040Z,102734.14
2023-04-18T04:55:58.676Z,102734.74
2023-04-18T04:59:35.748Z,102736.37
2023-04-18T05:03:13.165Z,102739.27
2023-04-18T05:06:51.130Z,102743.36
2023-04-18T05:10:28.320Z,102740.56
2023-04-18T05:14:06.253Z,102744.80
2023-04-18T05:17:43.708Z,102747.34
2023-04-18T05:21:21.513Z,102747.16
2023-04-18T05:24:58.753Z,102745.83
2023-04-18T05:28:36.697Z,102747.24
2023-04-18T05:32:19.123Z,102752.05
2023-04-18T05:35:52.815Z,102755.95
2023-04-18T05:39:29.962Z,102755.82
2023-04-18T05:43:06.977Z,102756.66
2023-04-18T05:46:45.996Z,102754.19
2023-04-18T05:50:23.432Z,102754.05
2023-04-18T05:54:00.626Z,102755.33
2023-04-18T05:57:38.446Z,102756.29
2023-04-18T06:01:16.461Z,102755.45
2023-04-18T06:04:54.257Z,102752.51
2023-04-18T06:08:31.209Z,102755.63
2023-04-18T06:12:09.013Z,102760.64
2023-04-18T06:15:46.555Z,102759.23
2023-04-18T06:19:24.127Z,102765.16
2023-04-18T06:23:01.771Z,102769.20
2023-04-18T06:26:39.989Z,102771.55
2023-04-18T06:30:17.202Z,102773.16
2023-04-18T06:33:55.117Z,102776.41
2023-04-18T06:37:32.477Z,102768.63
2023-04-18T06:41:10.530Z,102768.16
2023-04-18T06:44:47.927Z,102769.30
2023-04-18T06:48:25.560Z,102768.02
2023-04-18T06:52:03.195Z,102771.48
2023-04-18T06:55:41.250Z,102772.10
2023-04-18T06:59:19.609Z,102778.61
2023-04-18T07:02:56.911Z,102779.64
2023-04-18T07:06:35.096Z,102782.94
2023-04-18T07:10:12.131Z,102780.87
2023-04-18T07:13:49.645Z,102784.55
2023-04-18T07:17:26.926Z,102781.93
2023-04-18T07:21:43.265Z,102785.83
2023-04-18T07:24:42.598Z,102790.27
2023-04-18T07:28:39.037Z,102792.47
2023-04-18T07:31:58.176Z,102799.55
2023-04-18T07:35:36.334Z,102800.26
2023-04-18T07:39:13.258Z,102804.95
2023-04-18T07:42:50.829Z,102805.25
2023-04-18T07:46:29.140Z,102802.37
2023-04-18T07:50:06.993Z,102802.02
2023-04-18T07:53:46.171Z,102807.23
2023-04-18T07:57:21.500Z,102813.28
2023-04-18T08:00:59.483Z,102814.72
2023-04-18T08:04:37.023Z,102820.38
2023-04-18T08:08:14.576Z,102812.86
2023-04-18T08:11:52.097Z,102820.02
2023-04-18T08:15:32.973Z,102812.45
2023-04-18T08:19:07.684Z,102816.88
2023-04-18T08:23:02.347Z,102821.74
2023-04-18T08:26:22.835Z,102822.64
2023-04-18T08:30:02.090Z,102826.91
2023-04-18T08:33:38.288Z,102821.63
2023-04-18T08:37:16.102Z,102819.27
2023-04-18T08:40:53.516Z,102817.34
2023-04-18T08:44:51.968Z,102819.55
2023-04-18T08:48:16.369Z,102820.95
2023-04-18T08:51:54.278Z,102819.33
2023-04-18T08:55:24.504Z,102823.46
2023-04-18T08:59:02.932Z,102825.63
2023-04-18T09:02:47.271Z,102825.90
2023-04-18T09:06:19.564Z,102825.36
2023-04-18T09:09:57.406Z,102824.80
2023-04-18T09:13:40.088Z,102824.61
2023-04-18T09:17:13.380Z,102828.73
2023-04-18T09:20:50.004Z,102827.95
2023-04-18T09:24:27.285Z,102831.73
2023-04-18T09:28:23.316Z,102825.52
2023-04-18T09:32:01.523Z,102835.42
2023-04-18T09:35:25.793Z,102828.95
2023-04-18T09:38:57.365Z,102826.39
2023-04-18T09:42:53.898Z,102828.10
2023-04-18T09:46:12.733Z,102829.14
2023-04-18T09:49:50.366Z,102824.85
2023-04-18T09:53:29.356Z,102832.39
2023-04-18T09:57:13.814Z,102830.89
2023-04-18T10:00:44.969Z,102832.05
2023-04-18T10:04:20.939Z,102833.20
2023-04-18T10:07:59.617Z,102829.97
2023-04-18T10:11:36.595Z,102833.38
2023-04-18T10:15:16.053Z,102827.27
2023-04-18T10:18:51.894Z,102823.87
2023-04-18T10:22:28.884Z,102820.61
2023-04-18T10:26:11.090Z,102822.67
2023-04-18T10:29:52.080Z,102821.81
2023-04-18T10:33:42.804Z,102817.30
2023-04-18T10:37:06.498Z,102815.87
2023-04-18T10:40:37.381Z,102810.36
2023-04-18T10:44:23.218Z,102811.06
2023-04-18T10:48:31.419Z,102812.17
2023-04-18T10:51:32.594Z,102811.33
2023-04-18T10:55:20.503Z,102815.77
2023-04-18T10:58:52.394Z,102811.65
2023-04-18T11:02:30.479Z,102814.95
2023-04-18T11:06:03.988Z,102813.34
2023-04-18T11:09:41.163Z,102805.91
2023-04-18T11:13:19.124Z,102802.59
2023-04-18T11:16:56.369Z,102796.98
2023-04-18T11:20:46.339Z,102793.56
2023-04-18T11:24:12.272Z,102786.71
2023-04-18T11:27:55.227Z,102789.83
2023-04-18T11:31:27.187Z,102795.30
2023-04-18T11:35:05.760Z,102792.95
2023-04-18T11:38:42.507Z,102788.03
2023-04-18T11:42:20.774Z,102785.74
2023-04-18T11:45:59.944Z,102786.64
2023-04-18T11:49:35.477Z,102784.97
2023-04-18T11:53:13.061Z,102784.41
2023-04-18T11:56:50.958Z,102779.69
2023-04-18T12:00:34.473Z,102782.48
2023-04-18T12:04:08.597Z,102777.42
2023-04-18T12:07:48.068Z,102779.42
2023-04-18T12:11:21.771Z,102773.81
2023-04-18T12:15:08.426Z,102773.03
2023-04-18T12:18:37.059Z,102769.42
2023-04-18T12:22:16.798Z,102765.64
2023-04-18T12:26:00.158Z,102764.42
2023-04-18T12:29:30.370Z,102761.98
2023-04-18T12:33:09.420Z,102761.09
2023-04-18T12:36:46.898Z,102756.70
2023-04-18T12:40:24.601Z,102755.55
2023-04-18T12:44:00.686Z,102755.84
2023-04-18T12:47:39.700Z,102759.66
2023-04-18T12:51:16.196Z,102757.11
2023-04-18T12:54:53.695Z,102756.02
2023-04-18T12:58:31.672Z,102754.31
2023-04-18T13:02:09.446Z,102753.52
2023-04-18T13:05:53.161Z,102750.33
2023-04-18T13:09:24.504Z,102743.75
2023-04-18T13:13:02.001Z,102743.44
2023-04-18T13:16:41.635Z,102747.13
2023-04-18T13:20:17.221Z,102743.42
2023-04-18T13:23:55.079Z,102743.65
2023-04-18T13:27:32.935Z,102738.02
2023-04-18T13:31:10.592Z,102735.04
2023-04-18T13:34:48.916Z,102731.58
2023-04-18T13:38:27.727Z,102733.79
2023-04-18T13:42:04.560Z,102728.45
2023-04-18T13:45:41.712Z,102729.91
2023-04-18T13:49:19.212Z,102729.14
2023-04-18T13:52:56.720Z,102724.34
2023-04-18T13:56:34.492Z,102723.84
2023-04-18T14:00:14.509Z,102727.48
2023-04-18T14:03:49.805Z,102728.47
2023-04-18T14:07:27.585Z,102727.02
2023-04-18T14:11:04.899Z,102722.99
2023-04-18T14:19:13.280Z,102716.17
2023-04-18T14:22:52.852Z,102715.60
2023-04-18T14:26:28.204Z,102716.90
2023-04-18T14:30:09.064Z,102714.33
2023-04-18T14:33:43.389Z,102717.61
2023-04-18T14:37:21.419Z,102716.57
2023-04-18T14:40:59.206Z,102716.05
2023-04-18T14:44:36.465Z,102702.81
2023-04-18T14:48:33.012Z,102707.08
2023-04-18T14:51:51.706Z,102697.98
2023-04-18T14:55:29.701Z,102695.60
2023-04-18T14:59:07.318Z,102692.80
2023-04-18T15:02:45.051Z,102690.80
2023-04-18T15:06:23.322Z,102688.90
2023-04-18T15:10:00.504Z,102692.36
2023-04-18T15:13:38.142Z,102691.67
2023-04-18T15:17:15.898Z,102691.13
2023-04-18T15:20:54.031Z,102691.60
2023-04-18T15:24:31.374Z,102688.79
2023-04-18T15:28:08.627Z,102688.13
2023-04-18T15:31:47.210Z,102682.96
2023-04-18T15:35:24.072Z,102688.26
2023-04-18T15:39:06.952Z,102684.38
2023-04-18T15:42:39.519Z,102687.59
2023-04-18T15:46:17.501Z,102684.12
2023-04-18T15:49:54.621Z,102684.55
2023-04-18T15:53:32.718Z,102686.42
2023-04-18T15:57:11.368Z,102691.34
2023-04-18T16:01:07.272Z,102690.14
2023-04-18T16:04:25.612Z,102685.92
2023-04-18T16:08:03.312Z,102688.39
2023-04-18T16:11:40.891Z,102684.02
2023-04-18T16:15:18.803Z,102680.90
2023-04-18T16:18:56.222Z,102680.23
2023-04-18T16:22:34.105Z,102682.36
2023-04-18T16:26:11.548Z,102684.82
2023-04-18T16:29:49.350Z,102682.99
2023-04-18T16:33:26.948Z,102680.17
2023-04-18T16:37:04.476Z,102683.55
2023-04-18T16:40:42.389Z,102678.17
2023-04-18T16:44:20.076Z,102682.34
2023-04-18T16:47:57.898Z,102678.13
2023-04-18T16:51:37.289Z,102681.59
2023-04-18T16:55:12.886Z,102682.47
2023-04-18T16:58:50.765Z,102685.08
2023-04-18T17:02:28.713Z,102681.17
2023-04-18T17:06:06.366Z,102681.92
2023-04-18T17:09:43.531Z,102681.26
2023-04-18T17:13:27.076Z,102682.05
2023-04-18T17:16:58.776Z,102682.59
2023-04-18T17:20:37.277Z,102682.81
2023-04-18T17:24:18.764Z,102674.50
2023-04-18T17:27:52.173Z,102676.24
2023-04-18T17:31:29.850Z,102679.25
2023-04-18T17:35:08.378Z,102673.94
2023-04-18T17:38:49.109Z,102674.98
2023-04-18T17:42:22.830Z,102673.54
2023-04-18T17:46:01.687Z,102668.19
2023-04-18T17:49:39.034Z,102669.06
2023-04-18T17:53:15.523Z,102670.70
2023-04-18T17:56:53.387Z,102670.27
2023-04-18T18:00:31.432Z,102666.02
2023-04-18T18:04:08.910Z,102666.90
2023-04-18T18:07:48.147Z,102663.82
2023-04-18T18:11:24.307Z,102665.14
2023-04-18T18:15:02.482Z,102662.58
2023-04-18T18:18:39.961Z,102656.81
2023-04-18T18:22:28.490Z,102651.70
2023-04-18T18:25:55.020Z,102646.42
2023-04-18T18:29:32.950Z,102641.70
2023-04-18T18:33:10.331Z,102637.95
2023-04-18T18:36:48.118Z,102640.01
2023-04-18T18:40:25.653Z,102636.02
2023-04-18T18:44:03.629Z,102642.55
2023-04-18T18:47:41.467Z,102644.17
2023-04-18T18:51:19.468Z,102642.60
2023-04-18T18:54:56.470Z,102646.46
2023-04-18T18:58:33.939Z,102644.83
2023-04-18T19:02:12.067Z,102644.13
2023-04-18T19:05:49.502Z,102643.05
2023-04-18T19:09:27.653Z,102640.80
2023-04-18T19:13:05.107Z,102637.42
2023-04-18T19:16:42.617Z,102634.85
2023-04-18T19:20:20.247Z,102635.02
2023-04-18T19:23:57.656Z,102630.64
2023-04-18T19:27:36.265Z,102620.98
2023-04-18T19:31:13.133Z,102625.05
2023-04-18T19:34:51.868Z,102627.46
2023-04-18T19:38:28.495Z,102628.60
2023-04-18T19:42:06.604Z,102623.79
2023-04-18T19:45:43.898Z,102621.01
2023-04-18T19:49:22.582Z,102613.21
2023-04-18T19:52:59.191Z,102608.90
2023-04-18T19:56:36.718Z,102608.52
2023-04-18T20:00:16.190Z,102607.98
2023-04-18T20:03:52.781Z,102604.55
2023-04-18T20:07:30.862Z,102596.48
2023-04-18T20:11:10.006Z,102594.39
2023-04-18T20:14:45.604Z,102588.43
2023-04-18T20:18:24.291Z,102581.86
2023-04-18T20:22:01.323Z,102578.65
2023-04-18T20:25:38.186Z,102575.80
2023-04-18T20:29:16.558Z,102571.41
2023-04-18T20:32:54.079Z,102566.10
2023-04-18T20:36:31.449Z,102558.27
2023-04-18T20:40:09.987Z,102557.54
2023-04-18T20:43:47.125Z,102548.68
2023-04-18T20:47:24.585Z,102542.66
2023-04-18T20:51:02.231Z,102534.61
2023-04-18T20:54:39.820Z,102532.95
2023-04-18T20:58:17.453Z,102526.65
2023-04-18T21:01:55.217Z,102522.30
2023-04-18T21:05:33.127Z,102514.52
2023-04-18T21:09:10.702Z,102506.00
2023-04-18T21:12:48.218Z,102497.25
2023-04-18T21:16:26.123Z,102494.86
2023-04-18T21:20:03.767Z,102493.59
2023-04-18T21:23:44.402Z,102484.58
2023-04-18T21:27:18.805Z,102484.31
2023-04-18T21:30:56.455Z,102479.04
2023-04-18T21:34:34.098Z,102472.20
2023-04-18T21:38:11.779Z,102464.27
2023-04-18T21:41:49.388Z,102460.05
2023-04-18T21:45:27.059Z,102454.97
2023-04-18T21:49:04.656Z,102449.17
2023-04-18T21:52:42.245Z,102441.11
2023-04-18T21:56:20.246Z,102439.92
2023-04-18T21:59:58.016Z,102437.23
2023-04-18T22:03:37.066Z,102430.02
2023-04-18T22:07:13.595Z,102435.08
2023-04-18T22:10:50.730Z,102425.54
2023-04-18T22:14:28.387Z,102425.41
2023-04-18T22:18:08.987Z,102416.07
2023-04-18T22:21:44.129Z,102413.02
2023-04-18T22:25:21.158Z,102413.70
2023-04-18T22:28:59.324Z,102407.66
2023-04-18T22:32:55.659Z,102408.02
2023-04-18T22:36:14.787Z,102400.32
2023-04-18T22:39:52.065Z,102395.15
2023-04-18T22:43:31.047Z,102390.98
2023-04-18T22:47:08.393Z,102382.76
2023-04-18T22:50:46.397Z,102375.06
2023-04-18T22:54:22.923Z,102370.51
2023-04-18T22:58:01.041Z,102368.04
2023-04-18T23:01:38.206Z,102373.27
2023-04-18T23:05:16.258Z,102371.81
2023-04-18T23:08:53.268Z,102372.97
2023-04-18T23:12:31.655Z,102369.98
2023-04-18T23:16:09.132Z,102361.80
2023-04-18T23:19:46.607Z,102362.34
2023-04-18T23:23:24.198Z,102358.29
2023-04-18T23:27:02.334Z,102356.54
2023-04-18T23:30:39.616Z,102360.33
2023-04-18T23:34:17.299Z,102354.30
2023-04-18T23:37:54.836Z,102354.48
2023-04-18T23:41:32.651Z,102349.75
2023-04-18T23:45:10.870Z,102348.85
2023-04-18T23:48:47.990Z,102346.32
2023-04-18T23:52:25.660Z,102343.31
2023-04-18T23:56:03.330Z,102346.91
2023-04-18T23:59:41.056Z,102343.60
